PWSweather.com
Personal Weather Stations
Station Observations
KD0MBL
Pueblo West, Pueblo West, CO 81007

Pueblo WestPueblo West, CO 81007

Lat: 38.380276, Lon: -104.7134279

Elevation: 5220

Station Type: Davis VantageVue

Latest ConditionsUpdated 8:36:33 AM MST Friday, Dec 19, 2014
Currently Today's Max Today's Min Today's Average
Temperature 29.3°F-1.5°C 31.8°F-0.1°C 24.2°F-4.3°C 27.8°F-2.3°C
Dew Point 24.8°F-4.0°C 26.8°F-2.9°C 19.8°F-6.8°C 22.9°F-5.1°C
Winds 1.0 mph SW1.6 kmh SW 5.0 mph N8.0 kmh N - 1.6 mph 2.6 kmh
Wind Gusts 3.0 mph4.8 kmh 5.0 mph8.0 kmh - -
Humidity 83% 87% 76% 82%
Pressure 30.31 in1026.4 mb 30.31 in1026.4 mb 30.27 in1025.1 mb -
Hour Temp Dew Point Humidity Winds Wind Gusts Pressure Precip Precip Rate Daily Precip Total
08:36 AM 29.3°F-1.5°C 24.8°F-4.0°C 83% 1.0 mph SW1.6 kmh SW 3.0 mph4.8 kmh 30.31 in1026.4 mb 0.00 in0.0 mm 0.00 in/hr0.0 mm/hr 0.00 in0.0 mm
08:31 AM 28.9°F-1.7°C 25.0°F-3.9°C 85% Calm Calm 2.0 mph3.2 kmh 30.30 in1026.1 mb 0.00 in0.0 mm 0.00 in/hr0.0 mm/hr 0.00 in0.0 mm
08:26 AM 28.1°F-2.2°C 23.9°F-4.5°C 84% 1.0 mph WSW1.6 kmh WSW 2.0 mph3.2 kmh 30.30 in1026.1 mb 0.00 in0.0 mm 0.00 in/hr0.0 mm/hr 0.00 in0.0 mm
08:21 AM 27.7°F-2.4°C 23.5°F-4.7°C 84% 2.0 mph W3.2 kmh W 3.0 mph4.8 kmh 30.30 in1026.1 mb 0.00 in0.0 mm 0.00 in/hr0.0 mm/hr 0.00 in0.0 mm
08:16 AM 27.4°F-2.6°C 23.2°F-4.9°C 84% 2.0 mph W3.2 kmh W 3.0 mph4.8 kmh 30.30 in1026.1 mb 0.00 in0.0 mm 0.00 in/hr0.0 mm/hr 0.00 in0.0 mm
08:11 AM 26.6°F-3.0°C 22.1°F-5.5°C 83% 2.0 mph W3.2 kmh W 3.0 mph4.8 kmh 30.30 in1026.1 mb 0.00 in0.0 mm 0.00 in/hr0.0 mm/hr 0.00 in0.0 mm
08:06 AM 26.8°F-2.9°C 22.0°F-5.6°C 82% 2.0 mph W3.2 kmh W 4.0 mph6.4 kmh 30.30 in1026.1 mb 0.00 in0.0 mm 0.00 in/hr0.0 mm/hr 0.00 in0.0 mm
08:01 AM 26.8°F-2.9°C 22.3°F-5.4°C 83% 2.0 mph W3.2 kmh W 4.0 mph6.4 kmh 30.30 in1026.1 mb 0.00 in0.0 mm 0.00 in/hr0.0 mm/hr 0.00 in0.0 mm
07:56 AM 26.7°F-2.9°C 22.2°F-5.4°C 83% 2.0 mph W3.2 kmh W 3.0 mph4.8 kmh 30.30 in1026.1 mb 0.00 in0.0 mm 0.00 in/hr0.0 mm/hr 0.00 in0.0 mm
07:51 AM 26.8°F-2.9°C 22.6°F-5.2°C 84% 2.0 mph W3.2 kmh W 5.0 mph8.0 kmh 30.30 in1026.1 mb 0.00 in0.0 mm 0.00 in/hr0.0 mm/hr 0.00 in0.0 mm
07:46 AM 25.7°F-3.5°C 21.5°F-5.8°C 84% 2.0 mph W3.2 kmh W 5.0 mph8.0 kmh 30.30 in1026.1 mb 0.00 in0.0 mm 0.00 in/hr0.0 mm/hr 0.00 in0.0 mm
07:41 AM 25.9°F-3.4°C 21.7°F-5.7°C 84% 2.0 mph W3.2 kmh W 5.0 mph8.0 kmh 30.31 in1026.4 mb 0.00 in0.0 mm 0.00 in/hr0.0 mm/hr 0.00 in0.0 mm
07:36 AM 26.3°F-3.2°C 20.7°F-6.3°C 79% 1.0 mph W1.6 kmh W 5.0 mph8.0 kmh 30.31 in1026.4 mb 0.00 in0.0 mm 0.00 in/hr0.0 mm/hr 0.00 in0.0 mm
07:31 AM 27.7°F-2.4°C 23.2°F-4.9°C 83% Calm Calm 2.0 mph3.2 kmh 30.31 in1026.4 mb 0.00 in0.0 mm 0.00 in/hr0.0 mm/hr 0.00 in0.0 mm
07:26 AM 27.8°F-2.3°C 22.7°F-5.2°C 81% 1.0 mph NW1.6 kmh NW 4.0 mph6.4 kmh 30.31 in1026.4 mb 0.00 in0.0 mm 0.00 in/hr0.0 mm/hr 0.00 in0.0 mm
07:21 AM 28.1°F-2.2°C 23.9°F-4.5°C 84% 1.0 mph NW1.6 kmh NW 4.0 mph6.4 kmh 30.31 in1026.4 mb 0.00 in0.0 mm 0.00 in/hr0.0 mm/hr 0.00 in0.0 mm
07:16 AM 27.9°F-2.3°C 24.0°F-4.4°C 85% 1.0 mph NW1.6 kmh NW 2.0 mph3.2 kmh 30.31 in1026.4 mb 0.00 in0.0 mm 0.00 in/hr0.0 mm/hr 0.00 in0.0 mm
07:11 AM 27.7°F-2.4°C 23.5°F-4.7°C 84% 1.0 mph NW1.6 kmh NW 2.0 mph3.2 kmh 30.31 in1026.4 mb 0.00 in0.0 mm 0.00 in/hr0.0 mm/hr 0.00 in0.0 mm
07:06 AM 27.7°F-2.4°C 24.1°F-4.4°C 86% 1.0 mph WNW1.6 kmh WNW 2.0 mph3.2 kmh 30.31 in1026.4 mb 0.00 in0.0 mm 0.00 in/hr0.0 mm/hr 0.00 in0.0 mm
07:01 AM 26.9°F-2.8°C 23.3°F-4.8°C 86% 1.0 mph WNW1.6 kmh WNW 2.0 mph3.2 kmh 30.31 in1026.4 mb 0.00 in0.0 mm 0.00 in/hr0.0 mm/hr 0.00 in0.0 mm
06:56 AM 26.7°F-2.9°C 23.1°F-4.9°C 86% Calm Calm 2.0 mph3.2 kmh 30.31 in1026.4 mb 0.00 in0.0 mm 0.00 in/hr0.0 mm/hr 0.00 in0.0 mm
06:51 AM 26.2°F-3.2°C 22.6°F-5.2°C 86% Calm Calm 1.0 mph1.6 kmh 30.31 in1026.4 mb 0.00 in0.0 mm 0.00 in/hr0.0 mm/hr 0.00 in0.0 mm
06:46 AM 26.0°F-3.3°C 22.7°F-5.2°C 87% 1.0 mph W1.6 kmh W 5.0 mph8.0 kmh 30.30 in1026.1 mb 0.00 in0.0 mm 0.00 in/hr0.0 mm/hr 0.00 in0.0 mm
06:41 AM 25.3°F-3.7°C 21.7°F-5.7°C 86% 1.0 mph W1.6 kmh W 5.0 mph8.0 kmh 30.30 in1026.1 mb 0.00 in0.0 mm 0.00 in/hr0.0 mm/hr 0.00 in0.0 mm
06:36 AM 25.4°F-3.7°C 21.5°F-5.8°C 85% 1.0 mph W1.6 kmh W 5.0 mph8.0 kmh 30.30 in1026.1 mb 0.00 in0.0 mm 0.00 in/hr0.0 mm/hr 0.00 in0.0 mm
06:31 AM 25.8°F-3.4°C 20.8°F-6.2°C 81% 1.0 mph W1.6 kmh W 2.0 mph3.2 kmh 30.30 in1026.1 mb 0.00 in0.0 mm 0.00 in/hr0.0 mm/hr 0.00 in0.0 mm
06:26 AM 26.3°F-3.2°C 21.3°F-5.9°C 81% 1.0 mph NW1.6 kmh NW 2.0 mph3.2 kmh 30.30 in1026.1 mb 0.00 in0.0 mm 0.00 in/hr0.0 mm/hr 0.00 in0.0 mm
06:21 AM 27.3°F-2.6°C 22.5°F-5.3°C 82% 1.0 mph NNW1.6 kmh NNW 2.0 mph3.2 kmh 30.29 in1025.7 mb 0.00 in0.0 mm 0.00 in/hr0.0 mm/hr 0.00 in0.0 mm
06:16 AM 27.5°F-2.5°C 22.7°F-5.2°C 82% 2.0 mph NNW3.2 kmh NNW 3.0 mph4.8 kmh 30.29 in1025.7 mb 0.00 in0.0 mm 0.00 in/hr0.0 mm/hr 0.00 in0.0 mm
06:11 AM 27.6°F-2.4°C 22.2°F-5.4°C 80% 2.0 mph N3.2 kmh N 3.0 mph4.8 kmh 30.29 in1025.7 mb 0.00 in0.0 mm 0.00 in/hr0.0 mm/hr 0.00 in0.0 mm
06:06 AM 28.3°F-2.1°C 23.5°F-4.7°C 82% 2.0 mph N3.2 kmh N 3.0 mph4.8 kmh 30.28 in1025.4 mb 0.00 in0.0 mm 0.00 in/hr0.0 mm/hr 0.00 in0.0 mm
06:01 AM 27.9°F-2.3°C 23.7°F-4.6°C 84% 3.0 mph N4.8 kmh N 3.0 mph4.8 kmh 30.28 in1025.4 mb 0.00 in0.0 mm 0.00 in/hr0.0 mm/hr 0.00 in0.0 mm
05:56 AM 27.0°F-2.8°C 22.5°F-5.3°C 83% 3.0 mph N4.8 kmh N 3.0 mph4.8 kmh 30.28 in1025.4 mb 0.00 in0.0 mm 0.00 in/hr0.0 mm/hr 0.00 in0.0 mm
05:51 AM 27.0°F-2.8°C 21.7°F-5.7°C 80% 2.0 mph NNW3.2 kmh NNW 3.0 mph4.8 kmh 30.28 in1025.4 mb 0.00 in0.0 mm 0.00 in/hr0.0 mm/hr 0.00 in0.0 mm
05:46 AM 27.6°F-2.4°C 23.1°F-4.9°C 83% 3.0 mph NW4.8 kmh NW 4.0 mph6.4 kmh 30.28 in1025.4 mb 0.00 in0.0 mm 0.00 in/hr0.0 mm/hr 0.00 in0.0 mm
05:41 AM 27.5°F-2.5°C 22.7°F-5.2°C 82% 3.0 mph NW4.8 kmh NW 4.0 mph6.4 kmh 30.28 in1025.4 mb 0.00 in0.0 mm 0.00 in/hr0.0 mm/hr 0.00 in0.0 mm
05:36 AM 27.6°F-2.4°C 23.1°F-4.9°C 83% 3.0 mph NW4.8 kmh NW 4.0 mph6.4 kmh 30.28 in1025.4 mb 0.00 in0.0 mm 0.00 in/hr0.0 mm/hr 0.00 in0.0 mm
05:31 AM 27.3°F-2.6°C 23.1°F-4.9°C 84% 3.0 mph NW4.8 kmh NW 4.0 mph6.4 kmh 30.28 in1025.4 mb 0.00 in0.0 mm 0.00 in/hr0.0 mm/hr 0.00 in0.0 mm
05:26 AM 26.8°F-2.9°C 22.3°F-5.4°C 83% 3.0 mph WNW4.8 kmh WNW 5.0 mph8.0 kmh 30.28 in1025.4 mb 0.00 in0.0 mm 0.00 in/hr0.0 mm/hr 0.00 in0.0 mm
05:21 AM 26.2°F-3.2°C 22.0°F-5.6°C 84% 3.0 mph WNW4.8 kmh WNW 5.0 mph8.0 kmh 30.29 in1025.7 mb 0.00 in0.0 mm 0.00 in/hr0.0 mm/hr 0.00 in0.0 mm
05:16 AM 25.5°F-3.6°C 21.3°F-5.9°C 84% 3.0 mph W4.8 kmh W 5.0 mph8.0 kmh 30.28 in1025.4 mb 0.00 in0.0 mm 0.00 in/hr0.0 mm/hr 0.00 in0.0 mm
05:11 AM 25.7°F-3.5°C 21.5°F-5.8°C 84% 3.0 mph W4.8 kmh W 3.0 mph4.8 kmh 30.29 in1025.7 mb 0.00 in0.0 mm 0.00 in/hr0.0 mm/hr 0.00 in0.0 mm
05:06 AM 25.1°F-3.8°C 20.7°F-6.3°C 83% 2.0 mph W3.2 kmh W 3.0 mph4.8 kmh 30.29 in1025.7 mb 0.00 in0.0 mm 0.00 in/hr0.0 mm/hr 0.00 in0.0 mm
05:01 AM 26.6°F-3.0°C 21.3°F-5.9°C 80% 1.0 mph W1.6 kmh W 3.0 mph4.8 kmh 30.28 in1025.4 mb 0.00 in0.0 mm 0.00 in/hr0.0 mm/hr 0.00 in0.0 mm
04:56 AM 28.0°F-2.2°C 22.3°F-5.4°C 79% Calm Calm 2.0 mph3.2 kmh 30.28 in1025.4 mb 0.00 in0.0 mm 0.00 in/hr0.0 mm/hr 0.00 in0.0 mm
04:51 AM 28.7°F-1.8°C 23.3°F-4.8°C 80% 1.0 mph WNW1.6 kmh WNW 1.0 mph1.6 kmh 30.28 in1025.4 mb 0.00 in0.0 mm 0.00 in/hr0.0 mm/hr 0.00 in0.0 mm
04:46 AM 28.9°F-1.7°C 23.5°F-4.7°C 80% 1.0 mph WNW1.6 kmh WNW 1.0 mph1.6 kmh 30.28 in1025.4 mb 0.00 in0.0 mm 0.00 in/hr0.0 mm/hr 0.00 in0.0 mm
04:41 AM 29.1°F-1.6°C 23.7°F-4.6°C 80% 1.0 mph WNW1.6 kmh WNW 1.0 mph1.6 kmh 30.28 in1025.4 mb 0.00 in0.0 mm 0.00 in/hr0.0 mm/hr 0.00 in0.0 mm
04:36 AM 29.0°F-1.7°C 23.6°F-4.7°C 80% Calm Calm 1.0 mph1.6 kmh 30.27 in1025.1 mb 0.00 in0.0 mm 0.00 in/hr0.0 mm/hr 0.00 in0.0 mm
04:31 AM 29.0°F-1.7°C 23.6°F-4.7°C 80% Calm Calm -- 30.27 in1025.1 mb 0.00 in0.0 mm 0.00 in/hr0.0 mm/hr 0.00 in0.0 mm
04:26 AM 28.9°F-1.7°C 23.5°F-4.7°C 80% 1.0 mph WNW1.6 kmh WNW 1.0 mph1.6 kmh 30.27 in1025.1 mb 0.00 in0.0 mm 0.00 in/hr0.0 mm/hr 0.00 in0.0 mm
04:21 AM 28.8°F-1.8°C 23.4°F-4.8°C 80% 1.0 mph WNW1.6 kmh WNW 2.0 mph3.2 kmh 30.27 in1025.1 mb 0.00 in0.0 mm 0.00 in/hr0.0 mm/hr 0.00 in0.0 mm
04:16 AM 28.8°F-1.8°C 23.1°F-4.9°C 79% Calm Calm 2.0 mph3.2 kmh 30.27 in1025.1 mb 0.00 in0.0 mm 0.00 in/hr0.0 mm/hr 0.00 in0.0 mm
04:11 AM 28.8°F-1.8°C 23.1°F-4.9°C 79% Calm Calm -- 30.27 in1025.1 mb 0.00 in0.0 mm 0.00 in/hr0.0 mm/hr 0.00 in0.0 mm
04:06 AM 29.0°F-1.7°C 23.0°F-5.0°C 78% Calm Calm -- 30.27 in1025.1 mb 0.00 in0.0 mm 0.00 in/hr0.0 mm/hr 0.00 in0.0 mm
04:01 AM 29.2°F-1.6°C 23.2°F-4.9°C 78% Calm Calm -- 30.27 in1025.1 mb 0.00 in0.0 mm 0.00 in/hr0.0 mm/hr 0.00 in0.0 mm
03:56 AM 29.4°F-1.4°C 23.1°F-4.9°C 77% Calm Calm 1.0 mph1.6 kmh 30.27 in1025.1 mb 0.00 in0.0 mm 0.00 in/hr0.0 mm/hr 0.00 in0.0 mm
03:51 AM 29.7°F-1.3°C 23.4°F-4.8°C 77% 1.0 mph WNW1.6 kmh WNW 1.0 mph1.6 kmh 30.27 in1025.1 mb 0.00 in0.0 mm 0.00 in/hr0.0 mm/hr 0.00 in0.0 mm
03:46 AM 29.7°F-1.3°C 23.7°F-4.6°C 78% 1.0 mph WNW1.6 kmh WNW 2.0 mph3.2 kmh 30.27 in1025.1 mb 0.00 in0.0 mm 0.00 in/hr0.0 mm/hr 0.00 in0.0 mm
03:41 AM 29.4°F-1.4°C 23.4°F-4.8°C 78% 1.0 mph WNW1.6 kmh WNW 2.0 mph3.2 kmh 30.28 in1025.4 mb 0.00 in0.0 mm 0.00 in/hr0.0 mm/hr 0.00 in0.0 mm
03:36 AM 29.2°F-1.6°C 23.5°F-4.7°C 79% 1.0 mph WNW1.6 kmh WNW 2.0 mph3.2 kmh 30.28 in1025.4 mb 0.00 in0.0 mm 0.00 in/hr0.0 mm/hr 0.00 in0.0 mm
03:31 AM 28.4°F-2.0°C 23.3°F-4.8°C 81% 1.0 mph WNW1.6 kmh WNW 2.0 mph3.2 kmh 30.28 in1025.4 mb 0.00 in0.0 mm 0.00 in/hr0.0 mm/hr 0.00 in0.0 mm
03:26 AM 27.2°F-2.7°C 21.8°F-5.7°C 80% 2.0 mph W3.2 kmh W 4.0 mph6.4 kmh 30.28 in1025.4 mb 0.00 in0.0 mm 0.00 in/hr0.0 mm/hr 0.00 in0.0 mm
03:21 AM 27.0°F-2.8°C 20.7°F-6.3°C 77% 2.0 mph W3.2 kmh W 4.0 mph6.4 kmh 30.28 in1025.4 mb 0.00 in0.0 mm 0.00 in/hr0.0 mm/hr 0.00 in0.0 mm
03:16 AM 28.0°F-2.2°C 21.4°F-5.9°C 76% 1.0 mph WNW1.6 kmh WNW 3.0 mph4.8 kmh 30.28 in1025.4 mb 0.00 in0.0 mm 0.00 in/hr0.0 mm/hr 0.00 in0.0 mm
03:11 AM 28.9°F-1.7°C 22.9°F-5.1°C 78% Calm Calm 1.0 mph1.6 kmh 30.28 in1025.4 mb 0.00 in0.0 mm 0.00 in/hr0.0 mm/hr 0.00 in0.0 mm
03:06 AM 28.8°F-1.8°C 23.1°F-4.9°C 79% 1.0 mph NW1.6 kmh NW 2.0 mph3.2 kmh 30.28 in1025.4 mb 0.00 in0.0 mm 0.00 in/hr0.0 mm/hr 0.00 in0.0 mm
03:01 AM 28.9°F-1.7°C 23.2°F-4.9°C 79% 1.0 mph NW1.6 kmh NW 2.0 mph3.2 kmh 30.29 in1025.7 mb 0.00 in0.0 mm 0.00 in/hr0.0 mm/hr 0.00 in0.0 mm
02:56 AM 29.1°F-1.6°C 23.4°F-4.8°C 79% 2.0 mph WNW3.2 kmh WNW 3.0 mph4.8 kmh 30.29 in1025.7 mb 0.00 in0.0 mm 0.00 in/hr0.0 mm/hr 0.00 in0.0 mm
02:51 AM 28.8°F-1.8°C 23.7°F-4.6°C 81% 2.0 mph W3.2 kmh W 3.0 mph4.8 kmh 30.29 in1025.7 mb 0.00 in0.0 mm 0.00 in/hr0.0 mm/hr 0.00 in0.0 mm
02:46 AM 28.3°F-2.1°C 22.9°F-5.1°C 80% 1.0 mph W1.6 kmh W 3.0 mph4.8 kmh 30.29 in1025.7 mb 0.00 in0.0 mm 0.00 in/hr0.0 mm/hr 0.00 in0.0 mm
02:41 AM 28.9°F-1.7°C 23.2°F-4.9°C 79% 2.0 mph WNW3.2 kmh WNW 4.0 mph6.4 kmh 30.29 in1025.7 mb 0.00 in0.0 mm 0.00 in/hr0.0 mm/hr 0.00 in0.0 mm
02:36 AM 28.8°F-1.8°C 23.7°F-4.6°C 81% 3.0 mph WNW4.8 kmh WNW 5.0 mph8.0 kmh 30.30 in1026.1 mb 0.00 in0.0 mm 0.00 in/hr0.0 mm/hr 0.00 in0.0 mm
02:31 AM 27.2°F-2.7°C 22.4°F-5.3°C 82% 3.0 mph W4.8 kmh W 5.0 mph8.0 kmh 30.30 in1026.1 mb 0.00 in0.0 mm 0.00 in/hr0.0 mm/hr 0.00 in0.0 mm
02:26 AM 26.9°F-2.8°C 22.1°F-5.5°C 82% 3.0 mph W4.8 kmh W 4.0 mph6.4 kmh 30.30 in1026.1 mb 0.00 in0.0 mm 0.00 in/hr0.0 mm/hr 0.00 in0.0 mm
02:21 AM 27.0°F-2.8°C 21.7°F-5.7°C 80% 3.0 mph WNW4.8 kmh WNW 4.0 mph6.4 kmh 30.30 in1026.1 mb 0.00 in0.0 mm 0.00 in/hr0.0 mm/hr 0.00 in0.0 mm
02:16 AM 28.2°F-2.1°C 22.2°F-5.4°C 78% 4.0 mph NNW6.4 kmh NNW 5.0 mph8.0 kmh 30.30 in1026.1 mb 0.00 in0.0 mm 0.00 in/hr0.0 mm/hr 0.00 in0.0 mm
02:11 AM 28.6°F-1.9°C 22.6°F-5.2°C 78% 5.0 mph N8.0 kmh N 5.0 mph8.0 kmh 30.30 in1026.1 mb 0.00 in0.0 mm 0.00 in/hr0.0 mm/hr 0.00 in0.0 mm
02:06 AM 28.6°F-1.9°C 22.9°F-5.1°C 79% 4.0 mph N6.4 kmh N 5.0 mph8.0 kmh 30.30 in1026.1 mb 0.00 in0.0 mm 0.00 in/hr0.0 mm/hr 0.00 in0.0 mm
02:01 AM 28.5°F-1.9°C 23.1°F-4.9°C 80% 4.0 mph N6.4 kmh N 5.0 mph8.0 kmh 30.30 in1026.1 mb 0.00 in0.0 mm 0.00 in/hr0.0 mm/hr 0.00 in0.0 mm
01:56 AM 28.6°F-1.9°C 23.2°F-4.9°C 80% 4.0 mph NNE6.4 kmh NNE 5.0 mph8.0 kmh 30.30 in1026.1 mb 0.00 in0.0 mm 0.00 in/hr0.0 mm/hr 0.00 in0.0 mm
01:51 AM 28.5°F-1.9°C 23.7°F-4.6°C 82% 4.0 mph NNE6.4 kmh NNE 5.0 mph8.0 kmh 30.30 in1026.1 mb 0.00 in0.0 mm 0.00 in/hr0.0 mm/hr 0.00 in0.0 mm
01:46 AM 28.0°F-2.2°C 23.8°F-4.6°C 84% 3.0 mph NNE4.8 kmh NNE 4.0 mph6.4 kmh 30.30 in1026.1 mb 0.00 in0.0 mm 0.00 in/hr0.0 mm/hr 0.00 in0.0 mm
01:41 AM 27.3°F-2.6°C 23.4°F-4.8°C 85% 2.0 mph N3.2 kmh N 3.0 mph4.8 kmh 30.30 in1026.1 mb 0.00 in0.0 mm 0.00 in/hr0.0 mm/hr 0.00 in0.0 mm
01:36 AM 26.4°F-3.1°C 22.8°F-5.1°C 86% 1.0 mph N1.6 kmh N 3.0 mph4.8 kmh 30.30 in1026.1 mb 0.00 in0.0 mm 0.00 in/hr0.0 mm/hr 0.00 in0.0 mm
01:31 AM 26.0°F-3.3°C 22.7°F-5.2°C 87% 1.0 mph W1.6 kmh W 2.0 mph3.2 kmh 30.30 in1026.1 mb 0.00 in0.0 mm 0.00 in/hr0.0 mm/hr 0.00 in0.0 mm
01:26 AM 25.6°F-3.6°C 22.3°F-5.4°C 87% 2.0 mph W3.2 kmh W 3.0 mph4.8 kmh 30.30 in1026.1 mb 0.00 in0.0 mm 0.00 in/hr0.0 mm/hr 0.00 in0.0 mm
01:21 AM 25.4°F-3.7°C 21.8°F-5.7°C 86% 2.0 mph WSW3.2 kmh WSW 4.0 mph6.4 kmh 30.30 in1026.1 mb 0.00 in0.0 mm 0.00 in/hr0.0 mm/hr 0.00 in0.0 mm
01:16 AM 24.7°F-4.1°C 20.8°F-6.2°C 85% 2.0 mph WNW3.2 kmh WNW 4.0 mph6.4 kmh 30.30 in1026.1 mb 0.00 in0.0 mm 0.00 in/hr0.0 mm/hr 0.00 in0.0 mm
01:11 AM 26.0°F-3.3°C 22.1°F-5.5°C 85% 3.0 mph N4.8 kmh N 4.0 mph6.4 kmh 30.30 in1026.1 mb 0.00 in0.0 mm 0.00 in/hr0.0 mm/hr 0.00 in0.0 mm
01:06 AM 25.9°F-3.4°C 22.0°F-5.6°C 85% 3.0 mph N4.8 kmh N 4.0 mph6.4 kmh 30.30 in1026.1 mb 0.00 in0.0 mm 0.00 in/hr0.0 mm/hr 0.00 in0.0 mm
01:01 AM 25.9°F-3.4°C 22.6°F-5.2°C 87% 3.0 mph NNE4.8 kmh NNE 5.0 mph8.0 kmh 30.30 in1026.1 mb 0.00 in0.0 mm 0.00 in/hr0.0 mm/hr 0.00 in0.0 mm
12:56 AM 24.9°F-3.9°C 21.3°F-5.9°C 86% 4.0 mph NNE6.4 kmh NNE 5.0 mph8.0 kmh 30.29 in1025.7 mb 0.00 in0.0 mm 0.00 in/hr0.0 mm/hr 0.00 in0.0 mm
12:51 AM 24.2°F-4.3°C 19.8°F-6.8°C 83% 4.0 mph NE6.4 kmh NE 5.0 mph8.0 kmh 30.29 in1025.7 mb 0.00 in0.0 mm 0.00 in/hr0.0 mm/hr 0.00 in0.0 mm
12:46 AM 25.2°F-3.8°C 19.9°F-6.7°C 80% 2.0 mph ENE3.2 kmh ENE 5.0 mph8.0 kmh 30.30 in1026.1 mb 0.00 in0.0 mm 0.00 in/hr0.0 mm/hr 0.00 in0.0 mm
12:41 AM 27.2°F-2.7°C 21.2°F-6.0°C 78% 1.0 mph SE1.6 kmh SE 3.0 mph4.8 kmh 30.29 in1025.7 mb 0.00 in0.0 mm 0.00 in/hr0.0 mm/hr 0.00 in0.0 mm
12:36 AM 29.4°F-1.4°C 23.7°F-4.6°C 79% Calm Calm 3.0 mph4.8 kmh 30.30 in1026.1 mb 0.00 in0.0 mm 0.00 in/hr0.0 mm/hr 0.00 in0.0 mm
12:31 AM 31.4°F-0.3°C 26.5°F-3.1°C 82% Calm Calm -- 30.30 in1026.1 mb 0.00 in0.0 mm 0.00 in/hr0.0 mm/hr 0.00 in0.0 mm
12:26 AM 31.4°F-0.3°C 26.5°F-3.1°C 82% Calm Calm -- 30.30 in1026.1 mb 0.00 in0.0 mm 0.00 in/hr0.0 mm/hr 0.00 in0.0 mm
12:21 AM 31.5°F-0.3°C 26.6°F-3.0°C 82% Calm Calm -- 30.30 in1026.1 mb 0.00 in0.0 mm 0.00 in/hr0.0 mm/hr 0.00 in0.0 mm
12:16 AM 31.6°F-0.2°C 26.4°F-3.1°C 81% Calm Calm -- 30.30 in1026.1 mb 0.00 in0.0 mm 0.00 in/hr0.0 mm/hr 0.00 in0.0 mm
12:11 AM 31.8°F-0.1°C 26.6°F-3.0°C 81% Calm Calm -- 30.30 in1026.1 mb 0.00 in0.0 mm 0.00 in/hr0.0 mm/hr 0.00 in0.0 mm
12:06 AM 31.7°F-0.2°C 26.8°F-2.9°C 82% Calm Calm 1.0 mph1.6 kmh 30.30 in1026.1 mb 0.00 in0.0 mm 0.00 in/hr0.0 mm/hr 0.00 in0.0 mm
12:01 AM 30.9°F-0.6°C 26.6°F-3.0°C 84% 1.0 mph W1.6 kmh W 1.0 mph1.6 kmh 30.30 in1026.1 mb 0.00 in0.0 mm 0.00 in/hr0.0 mm/hr 0.02 in0.5 mm